Main page
METAR-TAF:

METAR-TAF

Airports :

Red Oak Municipal Airport

Red Oak, Iowa, United States

latitude: 41-01N, longitude: 095-16W, elevation: 1043 ft

Current weather observation

The report was made 45 minutes ago, at 21:15 UTC
Wind 31 mph from the Southwest with gusts up to 44 mph
Temperature 73°F
Humidity 31%
Pressure 29.76 in. Hg
Visibility: 10 miles
Clear sky

METAR: KRDK 222115Z AUTO 22027G38KT 10SM CLR 23/05 A2976 RMK AO2

Time: 17:00 (22:00 UTC)


TAF: missing

Weather observations and forecasts of more than 4000 airports (METAR and TAF reports).

The available stations are represented by yellow and red dots on the map.

Hover mouse over dot to see the name of the station.

Then click to see weather observations and forecasts.

To change the map : click on the green buttons with a black cross to zoom in, on the green button with a dash to zoom out, or on the green arrows for adjacent maps.


METAR-TAF: